sensor_id;sensor_type;location;lat;lon;timestamp;P1;durP1;ratioP1;P2;durP2;ratioP2
1471;SDS011;963;42.644;23.336;2023-05-16T00:01:39;19.37;;;15.27;;
1471;SDS011;963;42.644;23.336;2023-05-16T00:04:05;19.40;;;15.77;;
1471;SDS011;963;42.644;23.336;2023-05-16T00:06:31;19.07;;;15.40;;
1471;SDS011;963;42.644;23.336;2023-05-16T00:08:57;19.63;;;15.87;;
1471;SDS011;963;42.644;23.336;2023-05-16T00:11:23;18.63;;;16.10;;
1471;SDS011;963;42.644;23.336;2023-05-16T00:13:48;20.27;;;17.00;;
1471;SDS011;963;42.644;23.336;2023-05-16T00:16:15;17.87;;;15.87;;
1471;SDS011;963;42.644;23.336;2023-05-16T00:18:41;18.73;;;16.33;;
1471;SDS011;963;42.644;23.336;2023-05-16T00:21:09;17.03;;;15.33;;
1471;SDS011;963;42.644;23.336;2023-05-16T00:23:35;21.03;;;16.00;;
1471;SDS011;963;42.644;23.336;2023-05-16T00:26:00;16.13;;;14.43;;
1471;SDS011;963;42.644;23.336;2023-05-16T00:28:25;17.37;;;15.57;;
1471;SDS011;963;42.644;23.336;2023-05-16T00:30:51;19.13;;;17.13;;
1471;SDS011;963;42.644;23.336;2023-05-16T00:33:16;17.30;;;15.00;;
1471;SDS011;963;42.644;23.336;2023-05-16T00:35:42;18.43;;;14.93;;
1471;SDS011;963;42.644;23.336;2023-05-16T00:38:07;16.83;;;15.13;;
1471;SDS011;963;42.644;23.336;2023-05-16T00:40:32;20.37;;;15.50;;
1471;SDS011;963;42.644;23.336;2023-05-16T00:42:58;18.37;;;15.67;;
1471;SDS011;963;42.644;23.336;2023-05-16T00:45:23;16.47;;;14.77;;
1471;SDS011;963;42.644;23.336;2023-05-16T00:47:52;17.47;;;14.53;;
1471;SDS011;963;42.644;23.336;2023-05-16T00:50:17;19.40;;;14.20;;
1471;SDS011;963;42.644;23.336;2023-05-16T00:52:43;17.70;;;13.83;;
1471;SDS011;963;42.644;23.336;2023-05-16T00:55:09;17.13;;;15.33;;
1471;SDS011;963;42.644;23.336;2023-05-16T00:57:35;20.17;;;15.50;;
1471;SDS011;963;42.644;23.336;2023-05-16T01:00:02;19.67;;;14.60;;
1471;SDS011;963;42.644;23.336;2023-05-16T01:02:31;17.93;;;16.07;;
1471;SDS011;963;42.644;23.336;2023-05-16T01:04:58;17.73;;;15.93;;
1471;SDS011;963;42.644;23.336;2023-05-16T01:07:24;17.00;;;15.40;;
1471;SDS011;963;42.644;23.336;2023-05-16T01:09:50;17.83;;;16.00;;
1471;SDS011;963;42.644;23.336;2023-05-16T01:12:21;20.83;;;15.73;;
1471;SDS011;963;42.644;23.336;2023-05-16T01:14:55;16.83;;;15.13;;
1471;SDS011;963;42.644;23.336;2023-05-16T01:17:59;16.97;;;14.63;;
1471;SDS011;963;42.644;23.336;2023-05-16T01:20:44;22.33;;;16.10;;
1471;SDS011;963;42.644;23.336;2023-05-16T01:28:49;20.10;;;16.00;;
1471;SDS011;963;42.644;23.336;2023-05-16T01:31:15;17.57;;;15.77;;
1471;SDS011;963;42.644;23.336;2023-05-16T01:33:41;17.73;;;15.20;;
1471;SDS011;963;42.644;23.336;2023-05-16T01:38:40;17.00;;;15.20;;
1471;SDS011;963;42.644;23.336;2023-05-16T01:44:15;17.30;;;15.00;;
1471;SDS011;963;42.644;23.336;2023-05-16T01:46:45;17.90;;;15.80;;
1471;SDS011;963;42.644;23.336;2023-05-16T01:49:24;16.43;;;14.70;;
1471;SDS011;963;42.644;23.336;2023-05-16T01:52:09;17.23;;;15.13;;
1471;SDS011;963;42.644;23.336;2023-05-16T01:54:40;15.77;;;13.87;;
1471;SDS011;963;42.644;23.336;2023-05-16T01:57:09;18.80;;;14.77;;
1471;SDS011;963;42.644;23.336;2023-05-16T01:59:37;17.43;;;14.03;;
1471;SDS011;963;42.644;23.336;2023-05-16T02:02:03;16.40;;;14.57;;
1471;SDS011;963;42.644;23.336;2023-05-16T02:04:28;21.50;;;14.80;;
1471;SDS011;963;42.644;23.336;2023-05-16T02:06:54;15.10;;;13.27;;
1471;SDS011;963;42.644;23.336;2023-05-16T02:09:20;19.40;;;14.47;;
1471;SDS011;963;42.644;23.336;2023-05-16T02:11:46;20.93;;;14.43;;
1471;SDS011;963;42.644;23.336;2023-05-16T02:14:11;19.27;;;13.80;;
1471;SDS011;963;42.644;23.336;2023-05-16T02:16:37;15.60;;;13.73;;
1471;SDS011;963;42.644;23.336;2023-05-16T02:19:03;16.70;;;13.67;;
1471;SDS011;963;42.644;23.336;2023-05-16T02:21:28;14.70;;;12.50;;
1471;SDS011;963;42.644;23.336;2023-05-16T02:23:54;15.80;;;12.10;;
1471;SDS011;963;42.644;23.336;2023-05-16T02:26:19;14.30;;;11.73;;
1471;SDS011;963;42.644;23.336;2023-05-16T02:28:45;14.30;;;12.10;;
1471;SDS011;963;42.644;23.336;2023-05-16T02:31:23;14.20;;;12.60;;
1471;SDS011;963;42.644;23.336;2023-05-16T02:33:50;18.60;;;14.30;;
1471;SDS011;963;42.644;23.336;2023-05-16T02:36:15;13.43;;;12.10;;
1471;SDS011;963;42.644;23.336;2023-05-16T02:38:40;15.50;;;12.87;;
1471;SDS011;963;42.644;23.336;2023-05-16T02:41:06;14.90;;;13.03;;
1471;SDS011;963;42.644;23.336;2023-05-16T02:43:31;13.77;;;11.90;;
1471;SDS011;963;42.644;23.336;2023-05-16T02:45:56;15.93;;;13.23;;
1471;SDS011;963;42.644;23.336;2023-05-16T02:48:22;14.63;;;13.03;;
1471;SDS011;963;42.644;23.336;2023-05-16T02:50:47;16.60;;;12.23;;
1471;SDS011;963;42.644;23.336;2023-05-16T02:53:13;18.00;;;13.20;;
1471;SDS011;963;42.644;23.336;2023-05-16T02:55:38;15.83;;;12.07;;
1471;SDS011;963;42.644;23.336;2023-05-16T02:58:03;17.13;;;13.40;;
1471;SDS011;963;42.644;23.336;2023-05-16T03:00:29;13.13;;;11.73;;
1471;SDS011;963;42.644;23.336;2023-05-16T03:02:54;13.47;;;12.10;;
1471;SDS011;963;42.644;23.336;2023-05-16T03:05:20;14.10;;;12.70;;
1471;SDS011;963;42.644;23.336;2023-05-16T03:07:45;13.73;;;11.37;;
1471;SDS011;963;42.644;23.336;2023-05-16T03:10:10;15.10;;;12.83;;
1471;SDS011;963;42.644;23.336;2023-05-16T03:12:36;18.20;;;12.53;;
1471;SDS011;963;42.644;23.336;2023-05-16T03:15:01;15.50;;;13.60;;
1471;SDS011;963;42.644;23.336;2023-05-16T03:17:28;14.40;;;12.90;;
1471;SDS011;963;42.644;23.336;2023-05-16T03:19:53;14.53;;;13.03;;
1471;SDS011;963;42.644;23.336;2023-05-16T03:22:19;14.30;;;12.73;;
1471;SDS011;963;42.644;23.336;2023-05-16T03:24:44;15.63;;;13.57;;
1471;SDS011;963;42.644;23.336;2023-05-16T03:27:10;17.23;;;14.20;;
1471;SDS011;963;42.644;23.336;2023-05-16T03:29:35;17.50;;;13.97;;
1471;SDS011;963;42.644;23.336;2023-05-16T03:32:01;17.87;;;15.00;;
1471;SDS011;963;42.644;23.336;2023-05-16T03:34:27;21.17;;;14.37;;
1471;SDS011;963;42.644;23.336;2023-05-16T03:36:52;16.17;;;14.57;;
1471;SDS011;963;42.644;23.336;2023-05-16T03:39:18;17.00;;;13.77;;
1471;SDS011;963;42.644;23.336;2023-05-16T03:41:43;17.13;;;14.50;;
1471;SDS011;963;42.644;23.336;2023-05-16T03:44:09;15.73;;;13.70;;
1471;SDS011;963;42.644;23.336;2023-05-16T03:46:34;16.50;;;13.20;;
1471;SDS011;963;42.644;23.336;2023-05-16T03:49:00;16.97;;;12.63;;
1471;SDS011;963;42.644;23.336;2023-05-16T03:51:26;24.03;;;13.80;;
1471;SDS011;963;42.644;23.336;2023-05-16T03:53:52;16.47;;;14.57;;
1471;SDS011;963;42.644;23.336;2023-05-16T03:56:18;17.63;;;13.40;;
1471;SDS011;963;42.644;23.336;2023-05-16T03:58:43;16.43;;;13.37;;
1471;SDS011;963;42.644;23.336;2023-05-16T04:01:09;17.60;;;15.17;;
1471;SDS011;963;42.644;23.336;2023-05-16T04:03:34;20.20;;;15.63;;
1471;SDS011;963;42.644;23.336;2023-05-16T04:06:00;16.87;;;15.17;;
1471;SDS011;963;42.644;23.336;2023-05-16T04:08:25;16.07;;;14.13;;
1471;SDS011;963;42.644;23.336;2023-05-16T04:10:51;17.87;;;14.70;;
1471;SDS011;963;42.644;23.336;2023-05-16T04:13:16;17.17;;;15.47;;
1471;SDS011;963;42.644;23.336;2023-05-16T04:15:42;18.33;;;15.53;;
1471;SDS011;963;42.644;23.336;2023-05-16T04:18:08;19.60;;;15.43;;
1471;SDS011;963;42.644;23.336;2023-05-16T04:20:34;19.83;;;15.23;;
1471;SDS011;963;42.644;23.336;2023-05-16T04:23:00;17.17;;;15.07;;
1471;SDS011;963;42.644;23.336;2023-05-16T04:25:26;18.23;;;15.00;;
1471;SDS011;963;42.644;23.336;2023-05-16T04:27:51;19.50;;;15.70;;
1471;SDS011;963;42.644;23.336;2023-05-16T04:30:17;17.13;;;14.60;;
1471;SDS011;963;42.644;23.336;2023-05-16T04:32:43;15.73;;;14.03;;
1471;SDS011;963;42.644;23.336;2023-05-16T04:35:08;18.23;;;13.50;;
1471;SDS011;963;42.644;23.336;2023-05-16T04:37:34;17.20;;;14.67;;
1471;SDS011;963;42.644;23.336;2023-05-16T04:40:00;14.90;;;13.07;;
1471;SDS011;963;42.644;23.336;2023-05-16T04:42:25;16.00;;;13.90;;
1471;SDS011;963;42.644;23.336;2023-05-16T04:44:51;16.70;;;13.10;;
1471;SDS011;963;42.644;23.336;2023-05-16T04:47:16;17.73;;;13.60;;
1471;SDS011;963;42.644;23.336;2023-05-16T04:49:42;17.43;;;13.77;;
1471;SDS011;963;42.644;23.336;2023-05-16T04:52:07;16.97;;;15.17;;
1471;SDS011;963;42.644;23.336;2023-05-16T04:54:33;20.10;;;13.87;;
1471;SDS011;963;42.644;23.336;2023-05-16T04:56:58;17.97;;;13.87;;
1471;SDS011;963;42.644;23.336;2023-05-16T04:59:24;15.50;;;12.37;;
1471;SDS011;963;42.644;23.336;2023-05-16T05:01:49;14.90;;;12.50;;
1471;SDS011;963;42.644;23.336;2023-05-16T05:04:15;15.97;;;13.27;;
1471;SDS011;963;42.644;23.336;2023-05-16T05:06:41;19.00;;;14.07;;
1471;SDS011;963;42.644;23.336;2023-05-16T05:09:07;15.47;;;11.70;;
1471;SDS011;963;42.644;23.336;2023-05-16T05:11:33;16.20;;;13.03;;
1471;SDS011;963;42.644;23.336;2023-05-16T05:13:59;21.23;;;13.87;;
1471;SDS011;963;42.644;23.336;2023-05-16T05:16:25;19.03;;;13.30;;
1471;SDS011;963;42.644;23.336;2023-05-16T05:18:50;22.23;;;14.33;;
1471;SDS011;963;42.644;23.336;2023-05-16T05:21:16;18.03;;;14.47;;
1471;SDS011;963;42.644;23.336;2023-05-16T05:23:44;16.03;;;12.13;;
1471;SDS011;963;42.644;23.336;2023-05-16T05:26:10;15.63;;;12.47;;
1471;SDS011;963;42.644;23.336;2023-05-16T05:28:36;13.63;;;11.50;;
1471;SDS011;963;42.644;23.336;2023-05-16T05:31:02;16.30;;;12.90;;
1471;SDS011;963;42.644;23.336;2023-05-16T05:33:29;14.73;;;12.77;;
1471;SDS011;963;42.644;23.336;2023-05-16T05:35:54;15.60;;;12.43;;
1471;SDS011;963;42.644;23.336;2023-05-16T05:38:20;16.00;;;13.17;;
1471;SDS011;963;42.644;23.336;2023-05-16T05:40:46;18.57;;;13.20;;
1471;SDS011;963;42.644;23.336;2023-05-16T05:43:11;16.20;;;12.80;;
1471;SDS011;963;42.644;23.336;2023-05-16T05:45:37;16.30;;;11.93;;
1471;SDS011;963;42.644;23.336;2023-05-16T05:48:03;14.87;;;12.07;;
1471;SDS011;963;42.644;23.336;2023-05-16T05:50:28;20.03;;;13.10;;
1471;SDS011;963;42.644;23.336;2023-05-16T05:52:54;16.83;;;11.00;;
1471;SDS011;963;42.644;23.336;2023-05-16T05:55:20;13.63;;;11.70;;
1471;SDS011;963;42.644;23.336;2023-05-16T05:57:45;18.07;;;12.40;;
1471;SDS011;963;42.644;23.336;2023-05-16T06:00:11;15.73;;;11.43;;
1471;SDS011;963;42.644;23.336;2023-05-16T06:02:37;17.47;;;11.30;;
1471;SDS011;963;42.644;23.336;2023-05-16T06:05:03;12.60;;;9.97;;
1471;SDS011;963;42.644;23.336;2023-05-16T06:07:28;15.67;;;11.13;;
1471;SDS011;963;42.644;23.336;2023-05-16T06:09:54;14.00;;;11.40;;
1471;SDS011;963;42.644;23.336;2023-05-16T06:12:19;13.30;;;10.10;;
1471;SDS011;963;42.644;23.336;2023-05-16T06:14:44;14.23;;;11.40;;
1471;SDS011;963;42.644;23.336;2023-05-16T06:17:10;17.27;;;11.50;;
1471;SDS011;963;42.644;23.336;2023-05-16T06:19:35;17.43;;;11.10;;
1471;SDS011;963;42.644;23.336;2023-05-16T06:22:01;15.10;;;11.20;;
1471;SDS011;963;42.644;23.336;2023-05-16T06:24:26;16.37;;;10.73;;
1471;SDS011;963;42.644;23.336;2023-05-16T06:26:53;14.97;;;12.03;;
1471;SDS011;963;42.644;23.336;2023-05-16T06:29:19;14.37;;;11.33;;
1471;SDS011;963;42.644;23.336;2023-05-16T06:31:44;17.10;;;12.83;;
1471;SDS011;963;42.644;23.336;2023-05-16T06:34:11;13.37;;;10.83;;
1471;SDS011;963;42.644;23.336;2023-05-16T06:36:36;15.63;;;11.40;;
1471;SDS011;963;42.644;23.336;2023-05-16T06:39:02;12.37;;;11.17;;
1471;SDS011;963;42.644;23.336;2023-05-16T06:41:28;13.77;;;10.67;;
1471;SDS011;963;42.644;23.336;2023-05-16T06:43:54;14.90;;;9.60;;
1471;SDS011;963;42.644;23.336;2023-05-16T06:46:20;11.80;;;10.40;;
1471;SDS011;963;42.644;23.336;2023-05-16T06:48:46;13.23;;;10.37;;
1471;SDS011;963;42.644;23.336;2023-05-16T06:51:11;12.97;;;9.80;;
1471;SDS011;963;42.644;23.336;2023-05-16T06:53:37;12.30;;;10.17;;
1471;SDS011;963;42.644;23.336;2023-05-16T06:56:02;11.17;;;9.70;;
1471;SDS011;963;42.644;23.336;2023-05-16T06:58:27;10.57;;;9.33;;
1471;SDS011;963;42.644;23.336;2023-05-16T07:00:53;10.10;;;8.50;;
1471;SDS011;963;42.644;23.336;2023-05-16T07:03:18;11.50;;;9.43;;
1471;SDS011;963;42.644;23.336;2023-05-16T07:05:44;11.20;;;9.30;;
1471;SDS011;963;42.644;23.336;2023-05-16T07:08:09;14.40;;;10.83;;
1471;SDS011;963;42.644;23.336;2023-05-16T07:10:36;15.90;;;10.03;;
1471;SDS011;963;42.644;23.336;2023-05-16T07:13:01;14.00;;;8.40;;
1471;SDS011;963;42.644;23.336;2023-05-16T07:15:28;13.30;;;10.00;;
1471;SDS011;963;42.644;23.336;2023-05-16T07:17:54;14.63;;;9.93;;
1471;SDS011;963;42.644;23.336;2023-05-16T07:20:21;12.57;;;9.97;;
1471;SDS011;963;42.644;23.336;2023-05-16T07:22:46;10.60;;;9.50;;
1471;SDS011;963;42.644;23.336;2023-05-16T07:25:12;15.60;;;10.27;;
1471;SDS011;963;42.644;23.336;2023-05-16T07:27:39;14.67;;;10.90;;
1471;SDS011;963;42.644;23.336;2023-05-16T07:30:09;13.80;;;9.80;;
1471;SDS011;963;42.644;23.336;2023-05-16T07:32:36;11.13;;;9.80;;
1471;SDS011;963;42.644;23.336;2023-05-16T07:35:02;12.60;;;9.53;;
1471;SDS011;963;42.644;23.336;2023-05-16T07:37:28;12.80;;;9.80;;
1471;SDS011;963;42.644;23.336;2023-05-16T07:39:54;18.23;;;11.30;;
1471;SDS011;963;42.644;23.336;2023-05-16T07:42:19;19.53;;;10.73;;
1471;SDS011;963;42.644;23.336;2023-05-16T07:44:45;11.93;;;9.97;;
1471;SDS011;963;42.644;23.336;2023-05-16T07:47:11;14.43;;;11.30;;
1471;SDS011;963;42.644;23.336;2023-05-16T07:49:37;12.30;;;10.70;;
1471;SDS011;963;42.644;23.336;2023-05-16T07:52:02;18.37;;;10.43;;
1471;SDS011;963;42.644;23.336;2023-05-16T07:54:28;17.90;;;11.17;;
1471;SDS011;963;42.644;23.336;2023-05-16T07:56:53;11.70;;;10.50;;
1471;SDS011;963;42.644;23.336;2023-05-16T07:59:19;18.13;;;10.40;;
1471;SDS011;963;42.644;23.336;2023-05-16T08:01:44;12.10;;;10.47;;
1471;SDS011;963;42.644;23.336;2023-05-16T08:04:10;12.13;;;9.70;;
1471;SDS011;963;42.644;23.336;2023-05-16T08:06:35;17.17;;;10.23;;
1471;SDS011;963;42.644;23.336;2023-05-16T08:09:01;14.63;;;10.23;;
1471;SDS011;963;42.644;23.336;2023-05-16T08:11:26;18.20;;;9.70;;
1471;SDS011;963;42.644;23.336;2023-05-16T08:13:52;17.03;;;10.60;;
1471;SDS011;963;42.644;23.336;2023-05-16T08:16:17;15.27;;;10.67;;
1471;SDS011;963;42.644;23.336;2023-05-16T08:18:43;16.30;;;11.20;;
1471;SDS011;963;42.644;23.336;2023-05-16T08:21:08;19.53;;;10.30;;
1471;SDS011;963;42.644;23.336;2023-05-16T08:23:34;12.77;;;9.27;;
1471;SDS011;963;42.644;23.336;2023-05-16T08:26:00;14.43;;;10.00;;
1471;SDS011;963;42.644;23.336;2023-05-16T08:28:26;12.90;;;9.10;;
1471;SDS011;963;42.644;23.336;2023-05-16T08:30:52;12.57;;;9.43;;
1471;SDS011;963;42.644;23.336;2023-05-16T08:33:18;20.27;;;10.30;;
1471;SDS011;963;42.644;23.336;2023-05-16T08:35:43;13.03;;;9.10;;
1471;SDS011;963;42.644;23.336;2023-05-16T08:38:10;15.07;;;11.60;;
1471;SDS011;963;42.644;23.336;2023-05-16T08:40:35;11.70;;;9.33;;
1471;SDS011;963;42.644;23.336;2023-05-16T08:43:01;18.23;;;9.50;;
1471;SDS011;963;42.644;23.336;2023-05-16T08:45:26;15.33;;;9.90;;
1471;SDS011;963;42.644;23.336;2023-05-16T08:47:54;12.03;;;8.60;;
1471;SDS011;963;42.644;23.336;2023-05-16T08:50:20;14.13;;;9.30;;
1471;SDS011;963;42.644;23.336;2023-05-16T08:52:46;10.00;;;9.00;;
1471;SDS011;963;42.644;23.336;2023-05-16T08:55:16;11.37;;;8.67;;
1471;SDS011;963;42.644;23.336;2023-05-16T08:57:44;10.90;;;8.30;;
1471;SDS011;963;42.644;23.336;2023-05-16T09:00:10;11.60;;;8.63;;
1471;SDS011;963;42.644;23.336;2023-05-16T09:02:39;15.73;;;8.67;;
1471;SDS011;963;42.644;23.336;2023-05-16T09:05:07;11.33;;;8.73;;
1471;SDS011;963;42.644;23.336;2023-05-16T09:07:34;11.00;;;8.23;;
1471;SDS011;963;42.644;23.336;2023-05-16T09:10:00;11.53;;;7.80;;
1471;SDS011;963;42.644;23.336;2023-05-16T09:12:25;20.00;;;8.90;;
1471;SDS011;963;42.644;23.336;2023-05-16T09:14:51;12.97;;;9.20;;
1471;SDS011;963;42.644;23.336;2023-05-16T09:17:16;10.73;;;7.80;;
1471;SDS011;963;42.644;23.336;2023-05-16T09:19:42;9.87;;;7.87;;
1471;SDS011;963;42.644;23.336;2023-05-16T09:22:09;11.13;;;8.60;;
1471;SDS011;963;42.644;23.336;2023-05-16T09:24:40;16.17;;;8.00;;
1471;SDS011;963;42.644;23.336;2023-05-16T09:27:10;11.80;;;8.63;;
1471;SDS011;963;42.644;23.336;2023-05-16T09:29:43;11.70;;;8.50;;
1471;SDS011;963;42.644;23.336;2023-05-16T09:34:42;13.87;;;8.93;;
1471;SDS011;963;42.644;23.336;2023-05-16T09:37:08;14.90;;;8.87;;
1471;SDS011;963;42.644;23.336;2023-05-16T09:39:34;14.47;;;8.67;;
1471;SDS011;963;42.644;23.336;2023-05-16T09:41:59;14.47;;;8.33;;
1471;SDS011;963;42.644;23.336;2023-05-16T09:44:25;10.60;;;8.60;;
1471;SDS011;963;42.644;23.336;2023-05-16T09:46:52;13.30;;;9.20;;
1471;SDS011;963;42.644;23.336;2023-05-16T09:49:18;11.00;;;8.50;;
1471;SDS011;963;42.644;23.336;2023-05-16T09:51:44;14.13;;;9.50;;
1471;SDS011;963;42.644;23.336;2023-05-16T09:54:10;14.10;;;10.40;;
1471;SDS011;963;42.644;23.336;2023-05-16T09:56:48;13.80;;;8.63;;
1471;SDS011;963;42.644;23.336;2023-05-16T09:59:14;11.57;;;9.57;;
1471;SDS011;963;42.644;23.336;2023-05-16T10:01:40;14.10;;;9.83;;
1471;SDS011;963;42.644;23.336;2023-05-16T10:04:06;11.57;;;9.80;;
1471;SDS011;963;42.644;23.336;2023-05-16T10:06:34;12.70;;;9.73;;
1471;SDS011;963;42.644;23.336;2023-05-16T10:09:01;11.73;;;9.70;;
1471;SDS011;963;42.644;23.336;2023-05-16T10:11:27;12.90;;;8.40;;
1471;SDS011;963;42.644;23.336;2023-05-16T10:13:53;17.80;;;10.50;;
1471;SDS011;963;42.644;23.336;2023-05-16T10:16:20;17.10;;;9.60;;
1471;SDS011;963;42.644;23.336;2023-05-16T10:18:47;11.20;;;8.83;;
1471;SDS011;963;42.644;23.336;2023-05-16T10:21:14;12.00;;;9.00;;
1471;SDS011;963;42.644;23.336;2023-05-16T10:23:43;13.60;;;8.97;;
1471;SDS011;963;42.644;23.336;2023-05-16T10:26:13;11.77;;;9.10;;
1471;SDS011;963;42.644;23.336;2023-05-16T10:28:40;13.30;;;8.50;;
1471;SDS011;963;42.644;23.336;2023-05-16T10:31:06;15.77;;;10.10;;
1471;SDS011;963;42.644;23.336;2023-05-16T10:33:32;16.57;;;9.13;;
1471;SDS011;963;42.644;23.336;2023-05-16T10:35:57;17.03;;;9.40;;
1471;SDS011;963;42.644;23.336;2023-05-16T10:38:23;17.50;;;10.13;;
1471;SDS011;963;42.644;23.336;2023-05-16T10:40:50;19.83;;;10.17;;
1471;SDS011;963;42.644;23.336;2023-05-16T10:43:25;11.30;;;9.57;;
1471;SDS011;963;42.644;23.336;2023-05-16T10:45:54;11.10;;;8.93;;
1471;SDS011;963;42.644;23.336;2023-05-16T10:48:34;13.20;;;9.60;;
1471;SDS011;963;42.644;23.336;2023-05-16T10:51:02;13.43;;;9.17;;
1471;SDS011;963;42.644;23.336;2023-05-16T10:53:52;14.20;;;8.73;;
1471;SDS011;963;42.644;23.336;2023-05-16T10:56:21;18.23;;;10.50;;
1471;SDS011;963;42.644;23.336;2023-05-16T10:58:48;15.67;;;9.23;;
1471;SDS011;963;42.644;23.336;2023-05-16T11:01:23;17.40;;;9.60;;
1471;SDS011;963;42.644;23.336;2023-05-16T11:14:20;17.27;;;8.50;;
1471;SDS011;963;42.644;23.336;2023-05-16T11:16:50;9.93;;;8.73;;
1471;SDS011;963;42.644;23.336;2023-05-16T11:22:09;15.20;;;9.30;;
1471;SDS011;963;42.644;23.336;2023-05-16T11:24:48;9.90;;;8.83;;
1471;SDS011;963;42.644;23.336;2023-05-16T11:27:32;18.33;;;8.70;;
1471;SDS011;963;42.644;23.336;2023-05-16T11:30:00;11.53;;;8.50;;
1471;SDS011;963;42.644;23.336;2023-05-16T11:32:36;13.10;;;9.20;;
1471;SDS011;963;42.644;23.336;2023-05-16T11:35:03;14.70;;;9.27;;
1471;SDS011;963;42.644;23.336;2023-05-16T11:37:29;23.47;;;10.33;;
1471;SDS011;963;42.644;23.336;2023-05-16T11:40:05;21.23;;;9.73;;
1471;SDS011;963;42.644;23.336;2023-05-16T11:42:36;11.47;;;9.03;;
1471;SDS011;963;42.644;23.336;2023-05-16T11:47:39;16.83;;;8.73;;
1471;SDS011;963;42.644;23.336;2023-05-16T11:50:05;21.60;;;9.63;;
1471;SDS011;963;42.644;23.336;2023-05-16T11:52:35;11.20;;;8.23;;
1471;SDS011;963;42.644;23.336;2023-05-16T11:55:02;16.03;;;10.57;;
1471;SDS011;963;42.644;23.336;2023-05-16T11:57:28;20.10;;;8.90;;
1471;SDS011;963;42.644;23.336;2023-05-16T11:59:54;20.87;;;11.60;;
1471;SDS011;963;42.644;23.336;2023-05-16T12:02:19;15.77;;;9.07;;
1471;SDS011;963;42.644;23.336;2023-05-16T12:04:45;16.07;;;8.63;;
1471;SDS011;963;42.644;23.336;2023-05-16T12:07:14;14.20;;;9.17;;
1471;SDS011;963;42.644;23.336;2023-05-16T12:09:40;12.70;;;9.37;;
1471;SDS011;963;42.644;23.336;2023-05-16T12:12:06;12.80;;;8.90;;
1471;SDS011;963;42.644;23.336;2023-05-16T12:14:31;18.00;;;9.73;;
1471;SDS011;963;42.644;23.336;2023-05-16T12:16:57;18.00;;;8.80;;
1471;SDS011;963;42.644;23.336;2023-05-16T12:19:23;11.13;;;8.53;;
1471;SDS011;963;42.644;23.336;2023-05-16T12:21:52;16.03;;;9.40;;
1471;SDS011;963;42.644;23.336;2023-05-16T12:24:18;30.63;;;9.00;;
1471;SDS011;963;42.644;23.336;2023-05-16T12:26:43;19.07;;;9.90;;
1471;SDS011;963;42.644;23.336;2023-05-16T12:29:09;14.60;;;9.33;;
1471;SDS011;963;42.644;23.336;2023-05-16T12:31:36;13.90;;;8.50;;
1471;SDS011;963;42.644;23.336;2023-05-16T12:34:03;38.30;;;31.97;;
1471;SDS011;963;42.644;23.336;2023-05-16T12:36:32;22.50;;;14.87;;
1471;SDS011;963;42.644;23.336;2023-05-16T12:39:02;14.10;;;8.73;;
1471;SDS011;963;42.644;23.336;2023-05-16T12:41:28;19.70;;;8.80;;
1471;SDS011;963;42.644;23.336;2023-05-16T12:44:05;13.13;;;8.60;;
1471;SDS011;963;42.644;23.336;2023-05-16T12:46:39;14.30;;;9.57;;
1471;SDS011;963;42.644;23.336;2023-05-16T12:49:05;13.87;;;9.30;;
1471;SDS011;963;42.644;23.336;2023-05-16T12:51:32;14.63;;;8.67;;
1471;SDS011;963;42.644;23.336;2023-05-16T12:54:05;18.50;;;9.30;;
1471;SDS011;963;42.644;23.336;2023-05-16T12:56:32;16.67;;;9.20;;
1471;SDS011;963;42.644;23.336;2023-05-16T12:58:59;18.27;;;9.23;;
1471;SDS011;963;42.644;23.336;2023-05-16T13:01:24;10.43;;;8.60;;
1471;SDS011;963;42.644;23.336;2023-05-16T13:03:49;13.37;;;9.17;;
1471;SDS011;963;42.644;23.336;2023-05-16T13:06:15;14.37;;;8.30;;
1471;SDS011;963;42.644;23.336;2023-05-16T13:08:40;12.47;;;9.47;;
1471;SDS011;963;42.644;23.336;2023-05-16T13:11:06;17.60;;;9.50;;
1471;SDS011;963;42.644;23.336;2023-05-16T13:13:31;19.70;;;9.90;;
1471;SDS011;963;42.644;23.336;2023-05-16T13:15:56;15.23;;;9.13;;
1471;SDS011;963;42.644;23.336;2023-05-16T13:18:22;16.47;;;9.20;;
1471;SDS011;963;42.644;23.336;2023-05-16T13:20:47;20.67;;;9.50;;
1471;SDS011;963;42.644;23.336;2023-05-16T13:23:13;15.43;;;9.40;;
1471;SDS011;963;42.644;23.336;2023-05-16T13:25:39;15.63;;;9.63;;
1471;SDS011;963;42.644;23.336;2023-05-16T13:28:04;15.47;;;10.60;;
1471;SDS011;963;42.644;23.336;2023-05-16T13:30:30;14.77;;;10.63;;
1471;SDS011;963;42.644;23.336;2023-05-16T13:32:55;27.70;;;11.87;;
1471;SDS011;963;42.644;23.336;2023-05-16T13:35:20;17.23;;;10.63;;
1471;SDS011;963;42.644;23.336;2023-05-16T13:37:46;24.33;;;10.17;;
1471;SDS011;963;42.644;23.336;2023-05-16T13:40:11;15.73;;;10.00;;
1471;SDS011;963;42.644;23.336;2023-05-16T13:42:37;20.17;;;10.60;;
1471;SDS011;963;42.644;23.336;2023-05-16T13:45:05;19.97;;;11.27;;
1471;SDS011;963;42.644;23.336;2023-05-16T13:47:31;28.10;;;11.17;;
1471;SDS011;963;42.644;23.336;2023-05-16T13:49:57;18.57;;;12.17;;
1471;SDS011;963;42.644;23.336;2023-05-16T13:52:27;19.27;;;11.40;;
1471;SDS011;963;42.644;23.336;2023-05-16T13:54:52;16.37;;;11.40;;
1471;SDS011;963;42.644;23.336;2023-05-16T13:57:17;16.20;;;11.30;;
1471;SDS011;963;42.644;23.336;2023-05-16T13:59:43;21.30;;;11.50;;
1471;SDS011;963;42.644;23.336;2023-05-16T14:02:08;17.13;;;10.67;;
1471;SDS011;963;42.644;23.336;2023-05-16T14:04:33;15.80;;;11.03;;
1471;SDS011;963;42.644;23.336;2023-05-16T14:06:59;17.80;;;11.10;;
1471;SDS011;963;42.644;23.336;2023-05-16T14:09:25;21.40;;;11.03;;
1471;SDS011;963;42.644;23.336;2023-05-16T14:11:50;24.40;;;11.00;;
1471;SDS011;963;42.644;23.336;2023-05-16T14:14:15;12.90;;;11.00;;
1471;SDS011;963;42.644;23.336;2023-05-16T14:16:41;17.70;;;11.90;;
1471;SDS011;963;42.644;23.336;2023-05-16T14:19:09;24.90;;;12.30;;
1471;SDS011;963;42.644;23.336;2023-05-16T14:21:35;31.73;;;12.60;;
1471;SDS011;963;42.644;23.336;2023-05-16T14:24:01;20.20;;;12.60;;
1471;SDS011;963;42.644;23.336;2023-05-16T14:26:26;16.63;;;11.40;;
1471;SDS011;963;42.644;23.336;2023-05-16T14:28:51;19.33;;;12.50;;
1471;SDS011;963;42.644;23.336;2023-05-16T14:31:17;26.57;;;11.30;;
1471;SDS011;963;42.644;23.336;2023-05-16T14:33:42;24.43;;;12.60;;
1471;SDS011;963;42.644;23.336;2023-05-16T14:36:08;17.13;;;10.77;;
1471;SDS011;963;42.644;23.336;2023-05-16T14:38:34;17.53;;;11.87;;
1471;SDS011;963;42.644;23.336;2023-05-16T14:41:00;18.17;;;11.13;;
1471;SDS011;963;42.644;23.336;2023-05-16T14:43:25;22.60;;;11.37;;
1471;SDS011;963;42.644;23.336;2023-05-16T14:45:51;18.73;;;12.30;;
1471;SDS011;963;42.644;23.336;2023-05-16T14:48:16;15.80;;;11.03;;
1471;SDS011;963;42.644;23.336;2023-05-16T14:50:42;22.57;;;12.20;;
1471;SDS011;963;42.644;23.336;2023-05-16T14:53:07;25.57;;;11.73;;
1471;SDS011;963;42.644;23.336;2023-05-16T14:55:33;16.97;;;12.43;;
1471;SDS011;963;42.644;23.336;2023-05-16T14:57:58;14.10;;;12.33;;
1471;SDS011;963;42.644;23.336;2023-05-16T15:00:24;16.50;;;11.97;;
1471;SDS011;963;42.644;23.336;2023-05-16T15:02:50;16.20;;;12.43;;
1471;SDS011;963;42.644;23.336;2023-05-16T15:05:15;43.97;;;39.07;;
1471;SDS011;963;42.644;23.336;2023-05-16T15:07:41;26.77;;;23.67;;
1471;SDS011;963;42.644;23.336;2023-05-16T15:10:07;24.90;;;15.30;;
1471;SDS011;963;42.644;23.336;2023-05-16T15:12:33;15.73;;;13.60;;
1471;SDS011;963;42.644;23.336;2023-05-16T15:14:59;19.90;;;15.40;;
1471;SDS011;963;42.644;23.336;2023-05-16T15:17:25;23.17;;;17.07;;
1471;SDS011;963;42.644;23.336;2023-05-16T15:19:50;30.00;;;25.27;;